Time;durP1;ratioP1;P1;durP2;ratioP2;P2;SDS_P1;SDS_P2;PMS_P1;PMS_P2;Temp;Humidity;BMP_temperature;BMP_pressure;BME280_temperature;BME280_humidity;BME280_pressure;Samples;Min_cycle;Max_cycle;Signal;HPM_P1;HPM_P2
2023/10/31 00:00:37;;;;;;;5.50;2.65;;;;;;;11.65;nan;100056.09;5019164;28;20052;-68
2023/10/31 00:03:02;;;;;;;7.13;2.45;;;;;;;11.61;nan;100053.16;5019798;28;20029;-74
2023/10/31 00:05:27;;;;;;;7.35;3.20;;;;;;;11.51;nan;100037.16;5015336;28;20060;-73
2023/10/31 00:07:53;;;;;;;8.02;3.33;;;;;;;11.47;nan;100044.75;5017779;28;20115;-73
2023/10/31 00:10:19;;;;;;;5.07;2.80;;;;;;;11.50;nan;100051.38;5017466;28;20480;-73
2023/10/31 00:12:44;;;;;;;9.20;2.60;;;;;;;11.44;nan;100047.84;5019719;28;20129;-74
2023/10/31 00:15:10;;;;;;;7.07;3.05;;;;;;;11.42;nan;100036.75;5022463;28;20021;-67
2023/10/31 00:17:35;;;;;;;7.53;2.65;;;;;;;11.42;nan;100038.56;5017484;28;20044;-73
2023/10/31 00:20:01;;;;;;;5.43;2.70;;;;;;;11.46;nan;100037.88;5016971;28;20022;-74
2023/10/31 00:22:26;;;;;;;7.20;2.45;;;;;;;11.38;nan;100026.94;5015845;28;20500;-74
2023/10/31 00:24:51;;;;;;;5.53;2.50;;;;;;;11.19;nan;99986.81;5018178;28;20040;-71
2023/10/31 00:27:17;;;;;;;8.32;3.08;;;;;;;11.42;nan;100017.50;5016022;28;20038;-71
2023/10/31 00:29:42;;;;;;;3.67;2.40;;;;;;;11.41;nan;100015.91;5020115;28;20025;-71
2023/10/31 00:32:08;;;;;;;7.68;2.58;;;;;;;11.53;nan;100029.00;5019288;28;20079;-71
2023/10/31 00:34:33;;;;;;;6.82;2.63;;;;;;;11.56;nan;100026.69;5015689;28;20025;-71
2023/10/31 00:36:59;;;;;;;6.85;2.45;;;;;;;11.50;nan;100009.19;5016861;28;20448;-71
2023/10/31 00:39:24;;;;;;;5.10;2.38;;;;;;;11.58;nan;100021.16;5015235;28;20040;-70
2023/10/31 00:41:49;;;;;;;4.82;2.55;;;;;;;11.53;nan;100005.28;5017432;28;20084;-72
2023/10/31 00:44:15;;;;;;;7.97;2.22;;;;;;;11.56;nan;100010.84;5018304;28;20523;-70
2023/10/31 00:46:40;;;;;;;4.70;2.30;;;;;;;11.58;nan;100011.41;5020750;28;20029;-71
2023/10/31 00:49:06;;;;;;;5.70;2.70;;;;;;;11.58;nan;100005.34;5020726;28;20072;-71
2023/10/31 00:51:32;;;;;;;7.90;2.60;;;;;;;11.54;nan;99997.13;5016863;28;20069;-72
2023/10/31 00:53:57;;;;;;;4.07;2.53;;;;;;;11.52;nan;99999.22;5015005;28;20079;-71
2023/10/31 00:56:22;;;;;;;6.00;2.53;;;;;;;11.52;nan;99999.22;5020213;28;20476;-70
2023/10/31 00:58:48;;;;;;;5.43;2.63;;;;;;;11.50;nan;99986.25;5014313;28;20029;-69
2023/10/31 01:01:14;;;;;;;7.80;3.28;;;;;;;11.51;nan;99994.97;5018251;28;20021;-70
2023/10/31 01:03:39;;;;;;;5.25;2.60;;;;;;;11.43;nan;99984.81;5016426;28;20034;-71
2023/10/31 01:06:05;;;;;;;10.25;2.65;;;;;;;11.46;nan;99990.41;5019038;28;20506;-69
2023/10/31 01:08:30;;;;;;;5.53;2.58;;;;;;;11.38;nan;99982.13;5014679;28;20040;-68
2023/10/31 01:10:56;;;;;;;5.03;2.60;;;;;;;11.30;nan;99970.16;5018115;28;20706;-67
2023/10/31 01:13:22;;;;;;;5.05;2.47;;;;;;;11.20;nan;99965.47;5015997;28;20120;-69
2023/10/31 01:15:47;;;;;;;6.70;2.78;;;;;;;11.30;nan;99985.97;5017764;28;20040;-73
2023/10/31 01:18:12;;;;;;;5.45;2.30;;;;;;;11.33;nan;99989.94;5017173;28;20428;-73
2023/10/31 01:20:38;;;;;;;6.13;2.55;;;;;;;11.10;nan;99952.16;5019238;28;20022;-73
2023/10/31 01:23:04;;;;;;;9.68;2.55;;;;;;;11.22;nan;99963.41;5014374;28;20068;-73
2023/10/31 01:25:29;;;;;;;6.78;2.97;;;;;;;11.35;nan;99987.84;5015215;28;20022;-74
2023/10/31 01:27:55;;;;;;;8.98;2.40;;;;;;;11.26;nan;99961.09;5019810;28;20642;-73
2023/10/31 01:30:20;;;;;;;7.40;2.67;;;;;;;11.24;nan;99945.53;5020286;28;20022;-72
2023/10/31 01:32:45;;;;;;;4.60;2.40;;;;;;;11.27;nan;99950.31;5016783;28;20423;-73
2023/10/31 01:35:11;;;;;;;4.07;2.20;;;;;;;11.21;nan;99942.59;5014984;28;20042;-73
2023/10/31 01:37:37;;;;;;;6.57;2.47;;;;;;;11.17;nan;99918.53;5017749;28;20116;-73
2023/10/31 01:40:03;;;;;;;7.43;2.50;;;;;;;11.25;nan;99954.22;5017758;28;20029;-75
2023/10/31 01:42:29;;;;;;;5.22;2.53;;;;;;;11.21;nan;99951.28;5017627;28;20035;-73
2023/10/31 01:44:55;;;;;;;5.60;2.17;;;;;;;11.06;nan;99925.50;5018244;28;20553;-69
2023/10/31 01:47:21;;;;;;;5.57;2.22;;;;;;;11.19;nan;99939.38;5018641;28;20033;-68
2023/10/31 01:49:46;;;;;;;4.30;2.20;;;;;;;11.18;nan;99935.97;5020945;28;20392;-69
2023/10/31 01:52:12;;;;;;;4.40;2.20;;;;;;;11.11;nan;99919.50;5015356;28;20388;-71
2023/10/31 01:54:37;;;;;;;5.05;2.50;;;;;;;11.14;nan;99928.78;5013175;28;20037;-69
2023/10/31 01:57:04;;;;;;;7.20;2.35;;;;;;;11.18;nan;99922.78;5019406;28;20449;-69
2023/10/31 01:59:31;;;;;;;6.47;2.38;;;;;;;11.13;nan;99921.88;5018950;28;20164;-68
2023/10/31 02:01:57;;;;;;;5.28;2.13;;;;;;;11.04;nan;99913.59;5015633;28;20116;-69
2023/10/31 02:04:24;;;;;;;7.30;2.30;;;;;;;11.09;nan;99920.78;5020255;28;20030;-68
2023/10/31 02:06:49;;;;;;;5.15;2.30;;;;;;;11.17;nan;99931.72;5015977;28;20170;-68
2023/10/31 02:09:15;;;;;;;7.25;2.45;;;;;;;11.12;nan;99909.75;5013497;28;20025;-69
2023/10/31 02:11:40;;;;;;;5.22;2.33;;;;;;;11.19;nan;99916.47;5016587;28;20109;-69
2023/10/31 02:14:05;;;;;;;5.15;2.42;;;;;;;11.22;nan;99909.91;5016104;28;20049;-68
2023/10/31 02:16:31;;;;;;;4.63;2.58;;;;;;;11.23;nan;99914.16;5014098;28;20055;-68
2023/10/31 02:18:56;;;;;;;4.90;2.35;;;;;;;11.10;nan;99891.53;4996148;28;20026;-69
2023/10/31 02:21:23;;;;;;;6.25;2.30;;;;;;;11.00;nan;99896.66;5017225;28;20074;-68
2023/10/31 02:23:59;;;;;;;5.97;2.60;;;;;;;11.03;nan;99912.00;5015114;28;20029;-67
2023/10/31 02:26:29;;;;;;;5.47;2.35;;;;;;;11.04;nan;99908.34;5016989;28;20025;-69
2023/10/31 02:28:55;;;;;;;8.88;2.50;;;;;;;10.99;nan;99895.88;5015730;28;20034;-69
2023/10/31 02:31:20;;;;;;;6.25;2.42;;;;;;;11.01;nan;99906.16;5016138;28;20067;-67
2023/10/31 02:33:46;;;;;;;4.80;2.35;;;;;;;10.83;nan;99881.66;5016534;28;20061;-68
2023/10/31 02:36:11;;;;;;;4.28;2.33;;;;;;;10.85;nan;99890.13;5015679;28;20045;-68
2023/10/31 02:38:37;;;;;;;3.45;2.13;;;;;;;10.82;nan;99887.16;5018038;28;20034;-67
2023/10/31 02:41:02;;;;;;;4.25;2.25;;;;;;;10.83;nan;99894.03;5018010;28;20034;-69
2023/10/31 02:43:27;;;;;;;7.90;2.55;;;;;;;10.77;nan;99877.31;5013833;28;20029;-67
2023/10/31 02:45:53;;;;;;;4.97;2.28;;;;;;;10.69;nan;99867.19;5012885;28;20051;-69
2023/10/31 02:48:20;;;;;;;9.10;2.47;;;;;;;10.66;nan;99866.91;5014869;28;20480;-69
2023/10/31 02:50:45;;;;;;;4.68;2.47;;;;;;;10.73;nan;99886.75;5018051;28;20471;-69
2023/10/31 02:53:11;;;;;;;5.53;2.25;;;;;;;10.66;nan;99866.91;5015220;28;20037;-68
2023/10/31 02:55:37;;;;;;;8.23;2.65;;;;;;;10.78;nan;99878.16;5017486;28;20076;-69
2023/10/31 02:58:02;;;;;;;4.70;2.25;;;;;;;10.69;nan;99846.13;5016568;28;20030;-68
2023/10/31 03:00:27;;;;;;;7.13;2.60;;;;;;;10.85;nan;99863.00;5014617;28;20045;-69
2023/10/31 03:02:53;;;;;;;8.70;2.30;;;;;;;10.89;nan;99868.56;5012647;28;20113;-67
2023/10/31 03:05:18;;;;;;;5.15;2.67;;;;;;;10.83;nan;99859.78;5012676;28;20029;-69
2023/10/31 03:07:44;;;;;;;4.32;2.17;;;;;;;10.89;nan;99865.94;5017646;28;20037;-69
2023/10/31 03:10:10;;;;;;;5.22;2.70;;;;;;;10.89;nan;99858.81;5016495;28;20061;-68
2023/10/31 03:12:36;;;;;;;4.10;2.20;;;;;;;10.97;nan;99868.97;5016354;28;20061;-68
2023/10/31 03:15:03;;;;;;;6.97;2.55;;;;;;;11.01;nan;99871.91;5018303;28;20022;-74
2023/10/31 03:17:29;;;;;;;8.48;3.03;;;;;;;11.00;nan;99860.56;5021565;28;20030;-74
2023/10/31 03:19:55;;;;;;;7.80;2.75;;;;;;;10.94;nan;99852.81;5017092;28;20037;-74
2023/10/31 03:22:20;;;;;;;7.65;2.30;;;;;;;11.05;nan;99862.50;5014872;28;20025;-74
2023/10/31 03:24:46;;;;;;;4.45;2.30;;;;;;;11.06;nan;99858.81;5016349;28;20044;-73
2023/10/31 03:27:11;;;;;;;9.20;2.50;;;;;;;11.14;nan;99870.81;5014199;28;20087;-68
2023/10/31 03:29:36;;;;;;;5.13;2.53;;;;;;;11.20;nan;99875.88;5016777;28;20025;-68
2023/10/31 03:32:02;;;;;;;5.13;2.45;;;;;;;11.22;nan;99870.38;5011834;28;20040;-69
2023/10/31 03:34:27;;;;;;;5.80;2.58;;;;;;;11.09;nan;99833.84;5017200;28;20496;-70
2023/10/31 03:36:53;;;;;;;4.90;2.90;;;;;;;11.36;nan;99863.72;5016919;28;20538;-68
2023/10/31 03:39:18;;;;;;;6.28;2.00;;;;;;;11.40;nan;99859.56;5018290;28;20040;-69
2023/10/31 03:41:44;;;;;;;4.03;2.47;;;;;;;11.39;nan;99836.06;5020422;28;20034;-68
2023/10/31 03:44:09;;;;;;;4.53;2.03;;;;;;;11.43;nan;99829.28;5025800;28;20042;-69
2023/10/31 03:46:35;;;;;;;7.80;2.42;;;;;;;11.40;nan;99827.94;5019514;28;20112;-68
2023/10/31 03:49:00;;;;;;;5.20;2.40;;;;;;;11.40;nan;99824.50;5020533;28;20030;-68
2023/10/31 03:51:26;;;;;;;8.93;2.45;;;;;;;11.49;nan;99837.03;5018545;28;20033;-67
2023/10/31 03:53:51;;;;;;;5.13;2.40;;;;;;;11.52;nan;99840.19;5019828;28;20060;-68
2023/10/31 03:56:16;;;;;;;5.07;2.50;;;;;;;11.59;nan;99846.06;5018188;28;20399;-69
2023/10/31 03:58:43;;;;;;;5.57;2.15;;;;;;;11.60;nan;99839.78;5021731;28;20059;-68
2023/10/31 04:01:08;;;;;;;6.05;2.47;;;;;;;11.54;nan;99827.56;5019077;28;20022;-69
2023/10/31 04:03:34;;;;;;;6.43;2.35;;;;;;;11.47;nan;99817.22;5018560;28;20033;-68
2023/10/31 04:05:59;;;;;;;4.43;2.38;;;;;;;11.58;nan;99840.00;5018924;28;20427;-68
2023/10/31 04:08:25;;;;;;;9.57;2.60;;;;;;;11.55;nan;99827.31;5020617;28;20040;-68
2023/10/31 04:10:51;;;;;;;5.78;2.75;;;;;;;11.65;nan;99845.91;5025726;28;20037;-69
2023/10/31 04:13:16;;;;;;;6.93;2.53;;;;;;;11.54;nan;99814.38;5018073;28;20912;-67
2023/10/31 04:15:41;;;;;;;9.02;3.05;;;;;;;11.53;nan;99807.53;5018465;28;20481;-68
2023/10/31 04:18:07;;;;;;;5.57;2.38;;;;;;;11.56;nan;99813.09;5017907;28;20025;-69
2023/10/31 04:20:32;;;;;;;6.38;2.20;;;;;;;11.61;nan;99825.53;5019975;28;20045;-68
2023/10/31 04:22:57;;;;;;;5.88;2.58;;;;;;;11.52;nan;99812.00;5020639;28;20120;-67
2023/10/31 04:25:23;;;;;;;6.38;2.85;;;;;;;11.54;nan;99814.38;5024750;28;20112;-68
2023/10/31 04:27:49;;;;;;;5.43;2.83;;;;;;;11.60;nan;99819.47;5025275;28;20025;-68
2023/10/31 04:30:15;;;;;;;4.88;2.55;;;;;;;11.70;nan;99824.06;5019865;28;20018;-69
2023/10/31 04:32:41;;;;;;;5.05;2.25;;;;;;;11.76;nan;99836.28;5017913;28;20029;-68
2023/10/31 04:35:07;;;;;;;5.28;2.45;;;;;;;11.77;nan;99837.06;5017355;28;20060;-68
2023/10/31 04:37:32;;;;;;;3.67;2.05;;;;;;;11.78;nan;99838.66;5015226;28;20044;-68
2023/10/31 04:39:57;;;;;;;5.10;2.33;;;;;;;11.85;nan;99836.63;5017671;28;20022;-70
2023/10/31 04:42:23;;;;;;;3.88;2.10;;;;;;;11.89;nan;99848.31;5018493;28;20048;-67
2023/10/31 04:44:48;;;;;;;6.18;2.42;;;;;;;11.84;nan;99840.31;5015659;28;20052;-68
2023/10/31 04:47:14;;;;;;;6.25;2.30;;;;;;;11.77;nan;99824.69;5014563;28;20487;-67
2023/10/31 04:49:39;;;;;;;7.40;2.40;;;;;;;12.04;nan;99864.34;5017481;28;20033;-68
2023/10/31 04:52:05;;;;;;;5.50;2.25;;;;;;;11.99;nan;99853.69;5020109;28;20033;-69
2023/10/31 04:54:30;;;;;;;7.95;2.10;;;;;;;12.11;nan;99867.59;5020883;28;20033;-69
2023/10/31 04:56:55;;;;;;;5.32;2.33;;;;;;;12.12;nan;99871.81;5025498;28;20068;-69
2023/10/31 04:59:21;;;;;;;4.88;2.58;;;;;;;12.22;nan;99894.06;5017253;28;20108;-69
2023/10/31 05:01:55;;;;;;;8.02;2.22;;;;;;;12.24;nan;99894.63;5017446;28;20031;-69
2023/10/31 05:04:20;;;;;;;4.47;2.30;;;;;;;12.22;nan;99894.88;5015740;28;20124;-68
2023/10/31 05:06:46;;;;;;;5.32;2.63;;;;;;;12.13;nan;99883.94;5019270;28;20056;-69
2023/10/31 05:09:11;;;;;;;8.43;3.05;;;;;;;12.20;nan;99883.75;5019456;28;20468;-68
2023/10/31 05:11:36;;;;;;;9.68;3.28;;;;;;;12.20;nan;99882.97;5018333;28;20500;-68
2023/10/31 05:14:02;;;;;;;9.70;3.10;;;;;;;12.19;nan;99876.91;5016485;28;20032;-68
2023/10/31 05:16:27;;;;;;;7.45;2.67;;;;;;;12.15;nan;99883.72;5020460;28;20040;-67
2023/10/31 05:18:53;;;;;;;7.78;3.03;;;;;;;12.19;nan;99913.84;5016379;28;20060;-69
2023/10/31 05:21:20;;;;;;;13.00;3.00;;;;;;;12.25;nan;99928.69;5015030;28;20057;-69
2023/10/31 05:23:46;;;;;;;14.75;3.63;;;;;;;12.19;nan;99924.41;5020150;28;20083;-68
2023/10/31 05:26:11;;;;;;;12.02;3.60;;;;;;;12.15;nan;99922.50;5014573;28;20037;-69
2023/10/31 05:28:37;;;;;;;8.98;3.35;;;;;;;12.12;nan;99906.13;5018735;28;20034;-69
2023/10/31 05:31:03;;;;;;;8.50;2.63;;;;;;;12.28;nan;99901.00;5019347;28;20021;-67
2023/10/31 05:33:28;;;;;;;15.18;2.50;;;;;;;12.33;nan;99888.66;5022646;28;20120;-69
2023/10/31 05:35:54;;;;;;;8.85;2.80;;;;;;;12.49;nan;99892.22;5013716;28;20133;-69
2023/10/31 05:38:19;;;;;;;6.13;2.40;;;;;;;12.62;nan;99898.97;5016646;28;20072;-68
2023/10/31 05:40:45;;;;;;;9.73;2.80;;;;;;;12.57;nan;99898.94;5018334;28;20578;-67
2023/10/31 05:43:10;;;;;;;5.57;2.45;;;;;;;12.67;nan;99922.78;5015833;28;20104;-68
2023/10/31 05:45:35;;;;;;;7.22;3.10;;;;;;;12.71;nan;99923.06;5016460;28;20621;-68
2023/10/31 05:48:01;;;;;;;9.73;2.70;;;;;;;12.80;nan;99918.94;5014475;28;20037;-68
2023/10/31 05:50:26;;;;;;;12.57;3.22;;;;;;;12.91;nan;99917.19;5017905;28;20028;-67
2023/10/31 05:52:52;;;;;;;11.40;2.42;;;;;;;12.98;nan;99920.41;5014419;28;20438;-67
2023/10/31 05:55:17;;;;;;;9.20;3.13;;;;;;;12.94;nan;99892.88;5016465;28;20065;-70
2023/10/31 05:57:43;;;;;;;10.10;2.75;;;;;;;13.10;nan;99891.94;5015654;28;20029;-70
2023/10/31 06:00:08;;;;;;;6.80;2.88;;;;;;;13.13;nan;99883.50;5014983;28;20018;-70
2023/10/31 06:02:35;;;;;;;8.20;2.60;;;;;;;13.17;nan;99876.66;5013232;28;20068;-71
2023/10/31 06:05:00;;;;;;;6.95;2.47;;;;;;;13.33;nan;99888.16;5021883;28;20030;-72
2023/10/31 06:07:26;;;;;;;8.27;2.50;;;;;;;13.46;nan;99900.13;5016103;28;20021;-70
2023/10/31 06:09:51;;;;;;;6.15;2.72;;;;;;;13.43;nan;99886.63;5015268;28;20037;-70
2023/10/31 06:12:17;;;;;;;5.38;2.47;;;;;;;13.50;nan;99887.97;5019904;28;20805;-67
2023/10/31 06:14:43;;;;;;;5.22;2.30;;;;;;;13.57;nan;99877.97;5019348;28;20039;-68
2023/10/31 06:17:08;;;;;;;8.52;2.35;;;;;;;13.63;nan;99857.63;5016344;28;20025;-69
2023/10/31 06:19:35;;;;;;;5.57;2.33;;;;;;;;;;5012580;28;20040;-70
2023/10/31 06:22:00;;;;;;;7.70;2.38;;;;;;;;;;5013687;28;20065;-70
2023/10/31 06:24:25;;;;;;;8.15;2.53;;;;;;;13.79;nan;99822.25;5015924;28;20047;-67
2023/10/31 06:26:52;;;;;;;6.03;2.58;;;;;;;13.86;nan;99807.94;5019653;28;20033;-68
2023/10/31 06:29:17;;;;;;;5.72;2.75;;;;;;;13.94;nan;99813.53;5017767;28;20056;-74
2023/10/31 06:31:43;;;;;;;7.38;2.47;;;;;;;14.01;nan;99829.19;5015177;28;20499;-69
2023/10/31 06:34:08;;;;;;;8.27;2.33;;;;;;;14.09;nan;99833.97;5015859;28;20018;-68
2023/10/31 06:36:34;;;;;;;6.85;2.30;;;;;;;14.31;nan;99832.94;5018141;28;20434;-69
2023/10/31 06:38:59;;;;;;;6.30;2.45;;;;;;;14.42;nan;99826.59;5019152;28;20038;-68
2023/10/31 06:41:25;;;;;;;4.97;2.28;;;;;;;14.46;nan;99827.63;5022716;28;20025;-69
2023/10/31 06:43:50;;;;;;;6.75;2.55;;;;;;;14.51;nan;99817.06;5016866;28;20129;-69
2023/10/31 06:46:15;;;;;;;6.25;2.28;;;;;;;14.44;nan;99805.94;5016931;28;20554;-68
2023/10/31 06:48:41;;;;;;;5.80;2.90;;;;;;;14.65;nan;99835.88;5015877;28;20523;-69
2023/10/31 06:51:07;;;;;;;6.22;2.10;;;;;;;14.71;nan;99829.53;5022069;28;20029;-68
2023/10/31 06:53:32;;;;;;;7.10;2.47;;;;;;;14.86;nan;99834.03;5012078;28;20083;-69
2023/10/31 06:55:58;;;;;;;4.13;2.20;;;;;;;14.93;nan;99831.88;5013129;28;20029;-67
2023/10/31 06:58:23;;;;;;;8.50;2.25;;;;;;;15.00;nan;99821.81;5012566;28;20117;-69
2023/10/31 07:00:48;;;;;;;7.03;1.98;;;;;;;15.01;nan;99810.16;5014094;28;20033;-68
2023/10/31 07:03:15;;;;;;;9.68;2.40;;;;;;;15.27;nan;99833.94;5009034;28;20029;-69
2023/10/31 07:05:41;;;;;;;6.20;2.05;;;;;;;15.36;nan;99818.28;5010008;28;20182;-69
2023/10/31 07:08:07;;;;;;;6.03;2.22;;;;;;;15.58;nan;99807.31;5012028;28;20036;-69
2023/10/31 07:10:33;;;;;;;7.38;2.40;;;;;;;15.92;nan;99826.00;5009132;28;20030;-70
2023/10/31 07:12:59;;;;;;;4.88;2.00;;;;;;;16.17;nan;99825.06;5008255;28;20121;-70
2023/10/31 07:15:25;;;;;;;8.30;2.10;;;;;;;16.42;nan;99823.28;5011441;28;20115;-70
2023/10/31 07:17:51;;;;;;;3.55;1.80;;;;;;;16.65;nan;99811.94;5010482;28;20071;-69
2023/10/31 07:20:16;;;;;;;9.27;2.45;;;;;;;16.88;nan;99821.09;5008437;28;20697;-69
2023/10/31 07:22:42;;;;;;;5.13;1.92;;;;;;;17.03;nan;99795.41;5008777;28;20053;-68
2023/10/31 07:25:08;;;;;;;4.43;2.05;;;;;;;17.20;nan;99806.38;5010384;28;20038;-72
2023/10/31 07:27:33;;;;;;;6.32;1.90;;;;;;;17.37;nan;99805.94;5013016;28;20033;-69
2023/10/31 07:29:59;;;;;;;4.43;1.70;;;;;;;17.52;nan;99802.28;5014507;28;20052;-70
2023/10/31 07:32:24;;;;;;;4.97;2.05;;;;;;;17.59;nan;99795.53;5016808;28;20030;-68
2023/10/31 07:34:50;;;;;;;4.68;2.10;;;;;;;17.70;nan;99776.78;5017939;28;20037;-69
2023/10/31 07:37:15;;;;;;;8.10;2.33;;;;;;;17.82;nan;99769.94;5015088;28;20083;-68
2023/10/31 07:39:41;;;;;;;5.88;2.30;;;;;;;18.09;nan;99786.34;5017600;28;20040;-71
2023/10/31 07:42:07;;;;;;;6.55;2.22;;;;;;;18.21;nan;99781.38;5017248;28;20025;-70
2023/10/31 07:44:32;;;;;;;5.10;1.95;;;;;;;18.24;nan;99754.94;5014215;28;20036;-69
2023/10/31 07:46:58;;;;;;;3.90;1.83;;;;;;;18.45;nan;99765.25;5013816;28;20112;-69
2023/10/31 07:49:23;;;;;;;3.40;1.75;;;;;;;18.58;nan;99769.03;5020043;28;20052;-69
2023/10/31 07:51:49;;;;;;;5.05;2.13;;;;;;;18.61;nan;99758.56;5012186;28;20107;-70
2023/10/31 07:54:15;;;;;;;5.10;1.98;;;;;;;18.71;nan;99766.38;5015719;28;20541;-71
2023/10/31 07:56:41;;;;;;;5.88;1.98;;;;;;;18.83;nan;99767.81;5015470;28;20025;-72
2023/10/31 07:59:10;;;;;;;3.05;1.80;;;;;;;18.82;nan;99739.53;5017625;28;20442;-71
2023/10/31 08:01:36;;;;;;;1.85;1.52;;;;;;;18.92;nan;99734.03;5014830;28;20480;-70
2023/10/31 08:04:02;;;;;;;3.50;1.83;;;;;;;18.98;nan;99724.81;5017971;28;20037;-70
2023/10/31 08:06:27;;;;;;;3.13;1.65;;;;;;;19.04;nan;99720.97;5016916;28;20017;-72
2023/10/31 08:08:52;;;;;;;6.50;2.10;;;;;;;18.98;nan;99692.03;5015062;28;20033;-73
2023/10/31 08:11:18;;;;;;;6.57;2.28;;;;;;;19.04;nan;99696.19;5013698;28;20026;-72
2023/10/31 08:13:44;;;;;;;7.78;2.45;;;;;;;19.04;nan;99693.50;5013825;28;20099;-72
2023/10/31 08:16:09;;;;;;;3.13;1.60;;;;;;;18.92;nan;99665.47;5017956;28;20040;-72
2023/10/31 08:18:35;;;;;;;4.78;1.80;;;;;;;18.96;nan;99644.28;5019461;28;20033;-75
2023/10/31 08:21:01;;;;;;;3.85;1.75;;;;;;;19.50;nan;99719.22;5024110;28;20034;-74
2023/10/31 08:23:29;;;;;;;5.38;1.92;;;;;;;19.53;nan;99721.28;5017828;28;20033;-70
2023/10/31 08:25:55;;;;;;;9.10;2.00;;;;;;;19.46;nan;99703.00;5020772;28;20041;-75
2023/10/31 08:28:20;;;;;;;4.93;1.75;;;;;;;19.63;nan;99728.28;5019059;28;20510;-73
2023/10/31 08:30:46;;;;;;;5.30;1.88;;;;;;;19.58;nan;99715.84;5019329;28;20025;-73
2023/10/31 08:33:12;;;;;;;5.88;1.80;;;;;;;19.51;nan;99694.91;5016631;28;20088;-73
2023/10/31 08:35:37;;;;;;;9.30;2.03;;;;;;;19.66;nan;99715.13;5017796;28;20056;-73
2023/10/31 08:38:03;;;;;;;5.65;2.10;;;;;;;19.60;nan;99694.97;5018285;28;20059;-71
2023/10/31 08:40:28;;;;;;;4.90;1.75;;;;;;;19.74;nan;99698.41;5020952;28;20018;-70
2023/10/31 08:42:54;;;;;;;5.03;1.98;;;;;;;19.74;nan;99690.38;5016916;28;20464;-70
2023/10/31 08:45:20;;;;;;;3.85;1.42;;;;;;;19.68;nan;99656.06;5016590;28;20053;-70
2023/10/31 08:47:45;;;;;;;8.88;1.90;;;;;;;19.86;nan;99670.34;5019098;28;20089;-69
2023/10/31 08:50:11;;;;;;;5.85;1.90;;;;;;;19.79;nan;99654.75;5019393;28;20506;-70
2023/10/31 08:52:37;;;;;;;4.05;1.67;;;;;;;19.85;nan;99666.91;5019847;28;20040;-70
2023/10/31 08:55:03;;;;;;;4.80;1.70;;;;;;;19.93;nan;99671.50;5018834;28;20624;-69
2023/10/31 08:57:29;;;;;;;4.43;1.67;;;;;;;20.05;nan;99678.97;5021301;28;20032;-66
2023/10/31 08:59:55;;;;;;;5.20;1.60;;;;;;;20.11;nan;99699.13;5018193;28;20021;-67
2023/10/31 09:02:20;;;;;;;4.43;1.50;;;;;;;20.16;nan;99700.88;5017676;28;20029;-67
2023/10/31 09:04:46;;;;;;;4.93;1.98;;;;;;;20.24;nan;99697.47;5017828;28;20047;-68
2023/10/31 09:07:11;;;;;;;5.60;1.70;;;;;;;20.31;nan;99697.81;5018782;28;20075;-69
2023/10/31 09:09:37;;;;;;;5.75;1.70;;;;;;;20.32;nan;99688.69;5015458;28;20033;-67
2023/10/31 09:12:02;;;;;;;5.25;1.60;;;;;;;20.36;nan;99673.63;5016379;28;20026;-67
2023/10/31 09:14:28;;;;;;;4.32;1.58;;;;;;;20.48;nan;99680.28;5017327;28;20030;-70
2023/10/31 09:16:53;;;;;;;6.38;1.55;;;;;;;20.49;nan;99674.59;5015891;28;20033;-69
2023/10/31 09:19:19;;;;;;;7.05;1.60;;;;;;;20.48;nan;99675.72;5017856;28;20017;-69
2023/10/31 09:21:44;;;;;;;4.45;1.75;;;;;;;20.43;nan;99656.34;5018091;28;20108;-70
2023/10/31 09:24:10;;;;;;;7.82;1.70;;;;;;;20.52;nan;99647.25;5032123;28;20029;-68
2023/10/31 09:26:36;;;;;;;5.80;1.90;;;;;;;20.50;nan;99636.09;5020137;28;20423;-70
2023/10/31 09:29:01;;;;;;;5.18;1.73;;;;;;;20.57;nan;99636.44;5017786;28;20030;-69
2023/10/31 09:31:27;;;;;;;6.00;1.80;;;;;;;20.48;nan;99621.44;5017598;28;20026;-68
2023/10/31 09:33:52;;;;;;;4.78;1.90;;;;;;;20.57;nan;99636.44;5016651;28;20979;-69
2023/10/31 09:36:19;;;;;;;5.28;1.70;;;;;;;20.55;nan;99619.91;5017191;28;20037;-69
2023/10/31 09:38:45;;;;;;;5.68;1.90;;;;;;;20.57;nan;99631.09;5016315;28;20854;-68
2023/10/31 09:41:12;;;;;;;3.53;1.77;;;;;;;20.56;nan;99624.16;5017120;28;20113;-68
2023/10/31 09:43:37;;;;;;;5.40;1.90;;;;;;;20.54;nan;99610.31;5021943;28;20029;-69
2023/10/31 09:46:04;;;;;;;6.45;1.90;;;;;;;20.65;nan;99626.88;5015229;28;20076;-68
2023/10/31 09:48:31;;;;;;;10.18;1.90;;;;;;;20.57;nan;99625.75;5015825;28;20037;-74
2023/10/31 09:50:57;;;;;;;4.25;1.80;;;;;;;20.63;nan;99630.94;5015213;28;20029;-72
2023/10/31 09:53:24;;;;;;;4.05;1.90;;;;;;;20.59;nan;99620.88;5017167;28;20029;-71
2023/10/31 09:55:50;;;;;;;5.50;2.10;;;;;;;20.63;nan;99631.75;5015802;28;20041;-71
2023/10/31 09:58:15;;;;;;;4.18;1.55;;;;;;;20.62;nan;99637.41;5021662;28;20029;-70
2023/10/31 10:00:41;;;;;;;5.63;2.42;;;;;;;20.53;nan;99623.97;5016114;28;20022;-71
2023/10/31 10:03:09;;;;;;;4.07;1.98;;;;;;;20.56;nan;99621.47;5014915;28;20037;-71
2023/10/31 10:05:36;;;;;;;4.88;2.05;;;;;;;20.66;nan;99630.31;5014974;28;20482;-71
2023/10/31 10:08:03;;;;;;;10.48;2.30;;;;;;;20.58;nan;99621.19;5013528;28;20053;-71
2023/10/31 10:10:29;;;;;;;5.45;1.83;;;;;;;20.62;nan;99626.72;5015354;28;20075;-70
2023/10/31 10:12:55;;;;;;;3.70;1.80;;;;;;;20.63;nan;99623.72;5018554;28;20034;-71
2023/10/31 10:15:21;;;;;;;4.50;1.60;;;;;;;20.60;nan;99613.63;5017274;28;20028;-70
2023/10/31 10:17:51;;;;;;;4.68;1.75;;;;;;;20.64;nan;99613.78;5016593;28;20109;-69
2023/10/31 10:20:18;;;;;;;2.10;1.60;;;;;;;20.57;nan;99607.03;5021222;28;20109;-70
2023/10/31 10:22:44;;;;;;;2.53;1.48;;;;;;;20.63;nan;99620.25;5015719;28;20035;-69
2023/10/31 10:25:15;;;;;;;3.72;2.28;;;;;;;20.59;nan;99606.69;5015316;28;20038;-70
2023/10/31 10:27:44;;;;;;;6.00;2.05;;;;;;;20.52;nan;99601.78;5011390;28;20361;-70
2023/10/31 10:30:10;;;;;;;;;;;;;;;20.62;nan;99605.31;5017764;28;20040;-68
2023/10/31 10:32:36;;;;;;;7.97;2.38;;;;;;;20.56;nan;99593.94;5017216;28;19964;-68
2023/10/31 10:35:02;;;;;;;5.35;1.92;;;;;;;20.65;nan;99599.34;5016583;28;20049;-68
2023/10/31 10:37:30;;;;;;;6.07;2.13;;;;;;;20.64;nan;99595.88;5015356;28;20185;-69
2023/10/31 10:39:56;;;;;;;6.68;2.67;;;;;;;20.62;nan;99597.28;5017508;28;20159;-70
2023/10/31 10:42:35;;;;;;;6.38;2.08;;;;;;;20.61;nan;99580.44;5014272;28;20053;-68
2023/10/31 10:45:05;;;;;;;6.03;2.20;;;;;;;20.57;nan;99580.28;5021339;28;20657;-68
2023/10/31 10:47:35;;;;;;;7.18;2.20;;;;;;;20.54;nan;99572.84;5015113;28;20510;-68
2023/10/31 10:50:02;;;;;;;9.98;2.40;;;;;;;20.57;nan;99580.28;5013242;28;20032;-67
2023/10/31 10:52:35;;;;;;;7.15;2.17;;;;;;;20.51;nan;99570.00;5015200;28;20403;-68
2023/10/31 10:55:22;;;;;;;5.53;1.63;;;;;;;20.48;nan;99557.25;5014246;28;20033;-68
2023/10/31 10:58:08;;;;;;;7.68;2.40;;;;;;;20.53;nan;99557.09;5012087;28;20040;-69
2023/10/31 11:00:35;;;;;;;4.55;1.80;;;;;;;20.53;nan;99551.75;5012760;28;20056;-69
2023/10/31 11:03:00;;;;;;;5.00;1.95;;;;;;;20.54;nan;99542.63;5018622;28;20479;-68
2023/10/31 11:05:26;;;;;;;4.57;2.00;;;;;;;20.56;nan;99540.47;5015679;28;20033;-69
2023/10/31 11:07:53;;;;;;;4.20;2.03;;;;;;;20.58;nan;99535.59;5015630;28;20079;-67
2023/10/31 11:10:19;;;;;;;3.65;1.70;;;;;;;20.54;nan;99519.38;5017196;28;20033;-68
2023/10/31 11:12:45;;;;;;;7.18;1.90;;;;;;;20.62;nan;99533.88;5018000;28;20037;-72
2023/10/31 11:15:14;;;;;;;6.32;1.95;;;;;;;20.52;nan;99512.72;5015353;28;20028;-72
2023/10/31 11:17:45;;;;;;;5.30;1.80;;;;;;;20.64;nan;99522.84;5019522;28;20033;-72
2023/10/31 11:20:14;;;;;;;7.45;2.30;;;;;;;20.56;nan;99508.38;5017625;28;20084;-72
2023/10/31 11:22:45;;;;;;;8.15;2.10;;;;;;;20.53;nan;99504.41;5014312;28;20057;-72
2023/10/31 11:25:23;;;;;;;7.57;2.17;;;;;;;20.53;nan;99507.06;5002676;28;20029;-66
2023/10/31 11:27:52;;;;;;;6.10;2.13;;;;;;;20.51;nan;99511.16;5016119;28;20052;-66
2023/10/31 11:30:31;;;;;;;11.27;2.25;;;;;;;20.55;nan;99509.44;5018820;28;20068;-67
2023/10/31 11:33:01;;;;;;;11.27;2.70;;;;;;;20.49;nan;99510.69;5017796;28;20395;-67
2023/10/31 11:35:30;;;;;;;9.65;2.45;;;;;;;20.42;nan;99505.00;5014609;28;20049;-69
2023/10/31 11:38:03;;;;;;;;;;;;;;;20.44;nan;99505.50;5016915;28;20124;-67
2023/10/31 11:40:29;;;;;;;4.18;2.35;;;;;;;20.35;nan;99484.06;5015787;28;19916;-66
2023/10/31 11:42:57;;;;;;;6.43;2.53;;;;;;;20.45;nan;99504.38;5014910;28;20033;-68
2023/10/31 11:45:40;;;;;;;7.77;2.20;;;;;;;20.49;nan;99500.75;5015430;28;20644;-66